Time;durP1;ratioP1;P1;durP2;ratioP2;P2;SDS_P1;SDS_P2;PMS_P1;PMS_P2;Temp;Humidity;BMP_temperature;BMP_pressure;BME280_temperature;BME280_humidity;BME280_pressure;Samples;Min_cycle;Max_cycle;Signal;HPM_P1;HPM_P2
2024/04/24 00:01:20;;;;;;;7.60;6.90;;;9.20;99.90;;;;;;5488495;26;20471;-56
2024/04/24 00:03:48;;;;;;;7.47;6.77;;;9.20;99.90;;;;;;5488954;26;20443;-56
2024/04/24 00:06:21;;;;;;;9.43;7.50;;;9.20;99.90;;;;;;5488467;26;20573;-55
2024/04/24 00:08:50;;;;;;;9.53;8.37;;;9.30;99.90;;;;;;5488453;26;20826;-56
2024/04/24 00:11:20;;;;;;;9.10;6.53;;;9.30;99.90;;;;;;5488620;26;20561;-55
2024/04/24 00:13:45;;;;;;;9.50;5.90;;;9.40;99.90;;;;;;5488454;26;20456;-55
2024/04/24 00:16:14;;;;;;;6.90;5.70;;;9.40;99.80;;;;;;5488250;26;20507;-56
2024/04/24 00:18:43;;;;;;;8.90;6.37;;;9.30;99.60;;;;;;5488126;26;20210;-56
2024/04/24 00:21:12;;;;;;;9.47;5.90;;;9.30;99.70;;;;;;5487995;26;20463;-56
2024/04/24 00:23:43;;;;;;;7.20;6.10;;;9.20;99.40;;;;;;5488148;26;20451;-56
2024/04/24 00:26:12;;;;;;;13.80;5.77;;;9.20;99.50;;;;;;5489036;26;20447;-56
2024/04/24 00:28:40;;;;;;;7.30;5.00;;;9.20;99.50;;;;;;5491708;26;20459;-56
2024/04/24 00:31:09;;;;;;;5.90;5.00;;;9.10;99.40;;;;;;5491438;26;20463;-56
2024/04/24 00:33:37;;;;;;;5.70;5.20;;;9.10;99.40;;;;;;5491739;26;20573;-56
2024/04/24 00:36:06;;;;;;;6.30;4.50;;;9.10;99.20;;;;;;5491539;26;20895;-56
2024/04/24 00:38:34;;;;;;;11.30;5.20;;;9.10;99.20;;;;;;5491427;26;20452;-56
2024/04/24 00:41:05;;;;;;;9.53;4.70;;;9.10;99.10;;;;;;5491482;26;20507;-56
2024/04/24 00:43:34;;;;;;;8.90;4.30;;;9.00;98.80;;;;;;5491633;26;20500;-56
2024/04/24 00:46:03;;;;;;;6.13;4.50;;;9.00;98.70;;;;;;5491660;26;20447;-56
2024/04/24 00:48:32;;;;;;;8.40;4.50;;;8.90;98.60;;;;;;5491726;26;20451;-56
2024/04/24 00:51:00;;;;;;;5.70;4.33;;;8.80;98.60;;;;;;5491236;26;20911;-56
2024/04/24 00:53:29;;;;;;;9.87;4.57;;;8.70;98.70;;;;;;5491520;26;20451;-56
2024/04/24 00:55:57;;;;;;;10.90;4.40;;;8.70;98.90;;;;;;5491268;26;20833;-56
2024/04/24 00:58:28;;;;;;;6.03;3.53;;;8.70;99.00;;;;;;5491411;26;20455;-56
2024/04/24 01:00:58;;;;;;;6.77;3.43;;;8.70;98.80;;;;;;5490984;26;20464;-56
2024/04/24 01:03:27;;;;;;;7.60;3.67;;;8.70;98.80;;;;;;5491159;26;20467;-56
2024/04/24 01:05:55;;;;;;;6.23;3.30;;;8.70;98.90;;;;;;5490777;26;20467;-56
2024/04/24 01:08:24;;;;;;;7.50;3.07;;;8.70;98.70;;;;;;5491501;26;20455;-56
2024/04/24 01:10:57;;;;;;;6.30;3.00;;;8.60;98.40;;;;;;5490912;26;20471;-57
2024/04/24 01:13:29;;;;;;;10.87;2.90;;;8.60;98.60;;;;;;5491150;26;21090;-56
2024/04/24 01:16:03;;;;;;;6.97;2.63;;;8.60;98.50;;;;;;5491041;26;20842;-56
2024/04/24 01:18:32;;;;;;;3.47;2.50;;;8.60;98.60;;;;;;5491376;26;20462;-56
2024/04/24 01:21:04;;;;;;;3.60;2.80;;;8.60;98.40;;;;;;5490723;26;20941;-56
2024/04/24 01:23:40;;;;;;;9.20;3.10;;;8.60;98.60;;;;;;5490817;26;20463;-56
2024/04/24 01:26:14;;;;;;;5.53;2.70;;;8.60;98.70;;;;;;5491174;26;20506;-56
2024/04/24 01:28:45;;;;;;;5.40;2.27;;;8.60;98.60;;;;;;5490917;26;21157;-56
2024/04/24 01:31:14;;;;;;;4.13;1.80;;;8.60;98.50;;;;;;5490658;26;20935;-56
2024/04/24 01:33:42;;;;;;;9.03;3.73;;;8.60;98.40;;;;;;5490953;26;20455;-55
2024/04/24 01:36:11;;;;;;;8.00;2.20;;;8.50;98.40;;;;;;5490811;26;20561;-56
2024/04/24 01:38:39;;;;;;;4.10;2.17;;;8.50;98.40;;;;;;5489582;26;20447;-56
2024/04/24 01:41:07;;;;;;;6.40;2.20;;;8.50;98.60;;;;;;5490787;26;20464;-56
2024/04/24 01:43:38;;;;;;;5.33;2.20;;;8.50;98.80;;;;;;5490733;26;20530;-56
2024/04/24 01:46:09;;;;;;;3.53;2.30;;;8.50;99.00;;;;;;5490879;26;21053;-56
2024/04/24 01:48:38;;;;;;;4.97;2.00;;;8.60;99.10;;;;;;5490787;26;20467;-56
2024/04/24 01:51:07;;;;;;;4.10;1.90;;;8.60;99.10;;;;;;5490762;26;20577;-56
2024/04/24 01:53:35;;;;;;;5.13;1.90;;;8.60;98.60;;;;;;5490560;26;20463;-55
2024/04/24 01:56:04;;;;;;;4.37;1.53;;;8.50;98.40;;;;;;5490496;26;20463;-56
2024/04/24 01:58:32;;;;;;;5.43;1.80;;;8.50;98.30;;;;;;5490535;26;20496;-56
2024/04/24 02:01:01;;;;;;;2.23;1.37;;;8.50;98.10;;;;;;5490302;26;20668;-57
2024/04/24 02:03:32;;;;;;;3.40;1.80;;;8.50;98.20;;;;;;5490408;26;20451;-57
2024/04/24 02:06:01;;;;;;;4.33;1.60;;;8.40;98.20;;;;;;5490422;26;20464;-56
2024/04/24 02:08:30;;;;;;;4.40;1.73;;;8.40;98.30;;;;;;5490454;26;20577;-56
2024/04/24 02:10:58;;;;;;;7.53;1.80;;;8.30;98.40;;;;;;5490331;26;20471;-56
2024/04/24 02:13:27;;;;;;;4.03;1.87;;;8.30;98.60;;;;;;5490544;26;20459;-56
2024/04/24 02:15:55;;;;;;;5.93;1.80;;;8.30;98.50;;;;;;5489972;26;20455;-56
2024/04/24 02:18:24;;;;;;;5.57;1.80;;;8.30;98.60;;;;;;5490237;26;20565;-56
2024/04/24 02:20:55;;;;;;;4.53;1.83;;;8.30;98.80;;;;;;5490084;26;20576;-56
2024/04/24 02:23:31;;;;;;;5.97;2.07;;;8.40;98.90;;;;;;5490404;26;20857;-56
2024/04/24 02:25:56;;;;;;;8.87;2.23;;;8.40;98.90;;;;;;5490114;26;20500;-56
2024/04/24 02:28:25;;;;;;;6.73;1.90;;;8.40;99.20;;;;;;5490285;26;20432;-56
2024/04/24 02:30:53;;;;;;;5.73;1.83;;;8.30;98.90;;;;;;5489880;26;20324;-56
2024/04/24 02:33:22;;;;;;;3.83;1.50;;;8.30;99.00;;;;;;5490107;26;20451;-56
2024/04/24 02:35:50;;;;;;;6.37;2.30;;;8.30;99.10;;;;;;5490008;26;20988;-56
2024/04/24 02:38:21;;;;;;;5.30;2.87;;;8.30;99.20;;;;;;5490065;26;20542;-56
2024/04/24 02:40:50;;;;;;;5.40;2.10;;;8.30;99.30;;;;;;5490149;26;20911;-56
2024/04/24 02:43:18;;;;;;;9.10;2.80;;;8.40;99.50;;;;;;5490049;26;20577;-56
2024/04/24 02:45:47;;;;;;;7.87;2.13;;;8.30;99.40;;;;;;5490069;26;20549;-56
2024/04/24 02:48:16;;;;;;;7.33;2.30;;;8.30;99.50;;;;;;5490085;26;20460;-56
2024/04/24 02:50:44;;;;;;;6.30;2.70;;;8.30;99.70;;;;;;5489569;26;20572;-56
2024/04/24 02:53:13;;;;;;;9.20;3.37;;;8.20;99.80;;;;;;5489772;26;20443;-56
2024/04/24 02:55:44;;;;;;;4.13;2.20;;;8.20;99.90;;;;;;5489927;26;20504;-56
2024/04/24 02:58:12;;;;;;;11.20;3.07;;;8.10;99.90;;;;;;5490147;26;20447;-56
2024/04/24 03:00:41;;;;;;;6.17;2.40;;;8.10;99.90;;;;;;5489601;26;20500;-56
2024/04/24 03:03:09;;;;;;;13.43;4.40;;;8.10;99.90;;;;;;5489642;26;20988;-56
2024/04/24 03:05:37;;;;;;;5.43;2.40;;;8.10;99.90;;;;;;5489512;26;20455;-56
2024/04/24 03:08:06;;;;;;;3.50;2.30;;;8.10;99.90;;;;;;5489704;26;20513;-56
2024/04/24 03:10:35;;;;;;;3.93;2.17;;;8.10;99.90;;;;;;5489565;26;20455;-56
2024/04/24 03:13:06;;;;;;;6.10;2.80;;;8.10;99.90;;;;;;5489698;26;20456;-55
2024/04/24 03:15:34;;;;;;;6.73;2.53;;;8.10;99.90;;;;;;5489407;26;20467;-55
2024/04/24 03:18:03;;;;;;;7.93;2.60;;;8.10;99.90;;;;;;5489407;26;20447;-55
2024/04/24 03:20:31;;;;;;;8.57;3.13;;;8.10;99.90;;;;;;5489400;26;20503;-55
2024/04/24 03:23:00;;;;;;;10.80;2.60;;;8.10;99.90;;;;;;5489431;26;20447;-56
2024/04/24 03:25:28;;;;;;;8.13;2.67;;;8.00;99.90;;;;;;5489384;26;20831;-56
2024/04/24 03:27:56;;;;;;;3.70;2.30;;;8.00;99.90;;;;;;5489271;26;20502;-56
2024/04/24 03:30:28;;;;;;;10.53;2.13;;;7.90;99.90;;;;;;5489106;26;20546;-56
2024/04/24 03:32:56;;;;;;;6.60;2.60;;;7.90;99.90;;;;;;5488860;26;20460;-56
2024/04/24 03:35:24;;;;;;;14.57;3.17;;;7.90;99.90;;;;;;5489382;26;20460;-56
2024/04/24 03:37:53;;;;;;;4.07;2.20;;;7.80;99.90;;;;;;5489345;26;20467;-56
2024/04/24 03:40:21;;;;;;;7.40;2.50;;;7.80;99.90;;;;;;5489023;26;20455;-56
2024/04/24 03:42:50;;;;;;;7.20;2.10;;;7.70;99.90;;;;;;5488666;26;20830;-56
2024/04/24 03:45:18;;;;;;;9.20;2.70;;;7.70;99.90;;;;;;5488937;26;20459;-56
2024/04/24 03:47:49;;;;;;;6.30;2.73;;;7.70;99.90;;;;;;5489069;26;20955;-56
2024/04/24 03:50:18;;;;;;;9.70;2.40;;;7.60;99.90;;;;;;5488827;26;20511;-56
2024/04/24 03:52:46;;;;;;;6.03;2.00;;;7.60;99.90;;;;;;5488734;26;20459;-55
2024/04/24 03:55:15;;;;;;;6.87;3.03;;;7.60;99.90;;;;;;5488709;26;20565;-56
2024/04/24 03:57:43;;;;;;;4.80;2.37;;;7.60;99.90;;;;;;5488695;26;20463;-56
2024/04/24 04:00:13;;;;;;;3.07;2.20;;;7.60;99.90;;;;;;5488540;26;20459;-55
2024/04/24 04:02:42;;;;;;;8.80;2.83;;;7.50;99.90;;;;;;5491443;26;20471;-55
2024/04/24 04:05:13;;;;;;;6.20;2.37;;;7.60;99.90;;;;;;5492156;26;20957;-56
2024/04/24 04:07:41;;;;;;;2.70;1.77;;;7.60;99.90;;;;;;5492457;26;20565;-56
2024/04/24 04:10:09;;;;;;;6.30;2.60;;;7.60;99.90;;;;;;5492408;26;20455;-55
2024/04/24 04:12:35;;;;;;;5.07;1.60;;;7.60;99.90;;;;;;5492112;26;20579;-55
2024/04/24 04:15:04;;;;;;;6.73;2.33;;;7.60;99.90;;;;;;5492470;26;20459;-55
2024/04/24 04:17:32;;;;;;;5.83;1.90;;;7.50;99.90;;;;;;5492119;26;20550;-56
2024/04/24 04:20:01;;;;;;;3.57;2.07;;;7.50;99.90;;;;;;5492074;26;20505;-55
2024/04/24 04:22:32;;;;;;;2.90;1.83;;;7.40;99.90;;;;;;5491678;26;20946;-56
2024/04/24 04:25:00;;;;;;;3.43;2.30;;;7.40;99.90;;;;;;5491900;26;21075;-55
2024/04/24 04:27:26;;;;;;;5.57;2.30;;;7.50;99.90;;;;;;5492068;26;20463;-56
2024/04/24 04:29:55;;;;;;;6.37;2.17;;;7.50;99.90;;;;;;5492118;26;20451;-57
2024/04/24 04:32:23;;;;;;;4.10;2.10;;;7.50;99.90;;;;;;5491732;26;20934;-56
2024/04/24 04:34:52;;;;;;;4.10;2.57;;;7.60;99.90;;;;;;5491766;26;20451;-56
2024/04/24 04:37:21;;;;;;;7.47;3.13;;;7.60;99.90;;;;;;5491842;26;20448;-56
2024/04/24 04:39:52;;;;;;;2.63;2.13;;;7.60;99.90;;;;;;5491549;26;20559;-56
2024/04/24 04:42:20;;;;;;;7.17;2.80;;;7.60;99.90;;;;;;5491736;26;20452;-55
2024/04/24 04:44:49;;;;;;;6.43;2.50;;;7.60;99.90;;;;;;5491451;26;20447;-55
2024/04/24 04:47:17;;;;;;;3.67;2.60;;;7.70;99.90;;;;;;5491826;26;20972;-56
2024/04/24 04:49:45;;;;;;;7.00;2.70;;;7.70;99.90;;;;;;5491843;26;20455;-56
2024/04/24 04:52:14;;;;;;;5.10;2.90;;;7.70;99.90;;;;;;5492016;26;20635;-56
2024/04/24 04:54:42;;;;;;;7.10;3.77;;;7.70;99.90;;;;;;5494270;26;20565;-56
2024/04/24 04:57:13;;;;;;;3.90;3.30;;;7.70;99.90;;;;;;5494112;26;20857;-56
2024/04/24 04:59:42;;;;;;;4.03;3.27;;;7.70;99.90;;;;;;5492260;26;20499;-56
2024/04/24 05:02:10;;;;;;;6.33;3.40;;;7.70;99.90;;;;;;5491654;26;20519;-56
2024/04/24 05:04:39;;;;;;;6.70;3.53;;;7.60;99.90;;;;;;5491473;26;20557;-56
2024/04/24 05:07:07;;;;;;;4.03;3.40;;;7.70;99.90;;;;;;5491391;26;20447;-56
2024/04/24 05:09:36;;;;;;;8.27;3.70;;;7.70;99.90;;;;;;5491638;26;20844;-55
2024/04/24 05:12:04;;;;;;;3.60;3.00;;;7.70;99.90;;;;;;5490945;26;20585;-56
2024/04/24 05:14:36;;;;;;;3.30;2.73;;;7.70;99.90;;;;;;5490366;26;20500;-56
2024/04/24 05:17:05;;;;;;;4.53;3.13;;;7.70;99.90;;;;;;5491487;26;20507;-56
2024/04/24 05:19:33;;;;;;;8.57;3.70;;;7.70;99.90;;;;;;5491500;26;20557;-56
2024/04/24 05:22:02;;;;;;;7.87;3.47;;;7.70;99.90;;;;;;5491309;26;20468;-56
2024/04/24 05:24:30;;;;;;;7.20;3.83;;;7.70;99.90;;;;;;5491012;26;20468;-56
2024/04/24 05:29:46;;;;;;;6.67;4.10;;;7.80;99.90;;;;;;5494097;26;20483;-56
2024/04/24 05:32:15;;;;;;;5.03;3.53;;;7.80;99.90;;;;;;5490900;26;20464;-56
2024/04/24 05:34:43;;;;;;;10.53;4.50;;;7.80;99.90;;;;;;5490996;26;20463;-56
2024/04/24 05:37:12;;;;;;;5.67;3.70;;;7.80;99.90;;;;;;5490822;26;20496;-56
2024/04/24 05:39:40;;;;;;;7.27;4.27;;;7.90;99.90;;;;;;5490980;26;21048;-56
2024/04/24 05:42:09;;;;;;;10.83;4.30;;;7.90;99.90;;;;;;5490700;26;20548;-56
2024/04/24 05:44:37;;;;;;;3.90;3.13;;;7.90;99.90;;;;;;5490828;26;20439;-56
2024/04/24 05:47:08;;;;;;;6.70;3.83;;;7.90;99.90;;;;;;5490792;26;20463;-56
2024/04/24 05:49:37;;;;;;;4.13;2.90;;;7.90;99.90;;;;;;5490945;26;20455;-56
2024/04/24 05:52:05;;;;;;;6.13;3.33;;;7.90;99.90;;;;;;5490701;26;20510;-56
2024/04/24 05:54:35;;;;;;;5.80;2.47;;;7.90;99.90;;;;;;5490800;26;20459;-57
2024/04/24 05:57:04;;;;;;;7.00;2.40;;;7.80;99.90;;;;;;5490800;26;20548;-56
2024/04/24 05:59:32;;;;;;;5.03;3.13;;;7.80;99.90;;;;;;5490793;26;20440;-56
2024/04/24 06:02:01;;;;;;;4.10;2.50;;;7.90;99.80;;;;;;5490691;26;20468;-56
2024/04/24 06:04:32;;;;;;;5.90;2.47;;;7.90;99.80;;;;;;5490987;26;20455;-56
2024/04/24 06:07:00;;;;;;;7.30;2.77;;;7.90;99.80;;;;;;5490774;26;21103;-56
2024/04/24 06:09:26;;;;;;;7.63;2.90;;;8.00;99.70;;;;;;5491126;26;20496;-56
2024/04/24 06:11:54;;;;;;;6.03;2.43;;;8.10;99.40;;;;;;5490794;26;20472;-56
2024/04/24 06:14:24;;;;;;;8.30;3.33;;;8.20;99.40;;;;;;5490822;26;20302;-56
2024/04/24 06:16:53;;;;;;;5.73;2.63;;;8.20;99.10;;;;;;5490615;26;20448;-56
2024/04/24 06:19:21;;;;;;;5.90;3.40;;;8.20;99.20;;;;;;5490725;26;20560;-56
2024/04/24 06:21:52;;;;;;;6.07;3.33;;;8.30;99.00;;;;;;5490378;26;20573;-55
2024/04/24 06:24:20;;;;;;;6.83;3.30;;;8.30;98.60;;;;;;5489764;26;20576;-55
2024/04/24 06:26:49;;;;;;;2.63;2.30;;;8.20;98.60;;;;;;5490311;26;20610;-55
2024/04/24 06:29:17;;;;;;;4.80;2.90;;;8.20;98.70;;;;;;5490366;26;20573;-55
2024/04/24 06:31:46;;;;;;;6.63;3.20;;;8.30;99.20;;;;;;5490158;26;20460;-55
2024/04/24 06:34:14;;;;;;;6.10;3.10;;;8.30;99.20;;;;;;5490367;26;20463;-55
2024/04/24 06:36:43;;;;;;;5.07;2.40;;;8.50;99.60;;;;;;5490229;26;20448;-55
2024/04/24 06:39:14;;;;;;;4.13;2.70;;;8.60;98.90;;;;;;5490144;26;20459;-56
2024/04/24 06:41:42;;;;;;;5.57;2.17;;;8.60;97.20;;;;;;5490210;26;21024;-55
2024/04/24 06:44:11;;;;;;;5.13;2.20;;;8.60;96.80;;;;;;5490067;26;20452;-55
2024/04/24 06:46:39;;;;;;;5.37;1.70;;;8.50;96.60;;;;;;5490114;26;20452;-56
2024/04/24 06:49:07;;;;;;;3.10;1.90;;;8.40;96.90;;;;;;5489937;26;20451;-55
2024/04/24 06:51:36;;;;;;;3.80;1.80;;;8.30;96.50;;;;;;5490004;26;20471;-56
2024/04/24 06:54:05;;;;;;;4.27;1.90;;;8.40;96.80;;;;;;5489845;26;20874;-55
2024/04/24 06:56:36;;;;;;;1.97;1.77;;;8.50;97.10;;;;;;5489933;26;21135;-55
2024/04/24 06:59:04;;;;;;;2.27;1.70;;;8.60;96.70;;;;;;5490207;26;20504;-55
2024/04/24 07:01:32;;;;;;;3.27;1.90;;;8.60;95.90;;;;;;5489804;26;20479;-55
2024/04/24 07:04:01;;;;;;;3.50;2.00;;;8.70;96.10;;;;;;5489847;26;20550;-55
2024/04/24 07:06:29;;;;;;;4.13;2.60;;;8.80;95.90;;;;;;5489794;26;20456;-56
2024/04/24 07:08:58;;;;;;;4.00;2.67;;;8.90;95.90;;;;;;5489818;26;20471;-55
2024/04/24 07:11:26;;;;;;;5.57;2.50;;;8.90;95.50;;;;;;5489546;26;20569;-55
2024/04/24 07:13:57;;;;;;;3.47;2.03;;;9.00;95.70;;;;;;5489709;26;20985;-56
2024/04/24 07:16:26;;;;;;;2.60;2.10;;;9.10;95.40;;;;;;5489890;26;20459;-55
2024/04/24 07:18:54;;;;;;;3.90;2.43;;;9.10;94.70;;;;;;5489714;26;20540;-55
2024/04/24 07:21:22;;;;;;;7.27;2.93;;;9.10;95.20;;;;;;5489642;26;20451;-55
2024/04/24 07:23:51;;;;;;;5.03;2.40;;;9.10;95.20;;;;;;5489544;26;20455;-56
2024/04/24 07:26:20;;;;;;;6.57;2.83;;;9.10;94.80;;;;;;5489407;26;20460;-55
2024/04/24 07:28:47;;;;;;;5.57;2.50;;;9.20;95.10;;;;;;5489499;26;20455;-55
2024/04/24 07:31:18;;;;;;;4.00;2.80;;;9.20;94.40;;;;;;5489496;26;20839;-56
2024/04/24 07:33:47;;;;;;;4.87;2.30;;;9.20;94.00;;;;;;5489265;26;21025;-55
2024/04/24 07:36:15;;;;;;;5.40;2.70;;;9.20;94.40;;;;;;5487786;26;20456;-55
2024/04/24 07:38:43;;;;;;;2.57;2.33;;;9.20;94.30;;;;;;5489014;26;20500;-56
2024/04/24 07:41:12;;;;;;;4.23;2.53;;;9.30;93.90;;;;;;5489247;26;20569;-55
2024/04/24 07:43:40;;;;;;;6.67;2.50;;;9.50;94.40;;;;;;5489129;26;20463;-56
2024/04/24 07:46:09;;;;;;;8.23;2.97;;;9.70;92.80;;;;;;5488978;26;20552;-55
2024/04/24 07:48:40;;;;;;;7.63;2.13;;;9.90;92.60;;;;;;5489354;26;20487;-55
2024/04/24 07:51:09;;;;;;;5.57;2.30;;;10.00;91.70;;;;;;5489152;26;20516;-56
2024/04/24 07:53:37;;;;;;;5.27;2.30;;;9.90;91.10;;;;;;5489052;26;20455;-56
2024/04/24 07:56:06;;;;;;;5.23;2.47;;;9.90;90.90;;;;;;5489099;26;20456;-55
2024/04/24 07:58:34;;;;;;;6.47;3.03;;;10.00;91.10;;;;;;5488960;26;20989;-56
2024/04/24 08:01:03;;;;;;;5.13;1.83;;;10.20;90.80;;;;;;5488923;26;20467;-56
2024/04/24 08:03:31;;;;;;;6.80;2.03;;;10.40;90.60;;;;;;5488877;26;20499;-56
2024/04/24 08:06:04;;;;;;;6.17;2.07;;;10.30;88.30;;;;;;5488895;26;20560;-55
2024/04/24 08:08:32;;;;;;;7.47;2.20;;;10.20;87.20;;;;;;5488940;26;20577;-56
2024/04/24 08:11:01;;;;;;;5.67;1.90;;;10.20;86.10;;;;;;5488694;26;21009;-55
2024/04/24 08:13:29;;;;;;;6.00;1.70;;;10.00;86.90;;;;;;5488884;26;20459;-55
2024/04/24 08:15:57;;;;;;;4.07;1.73;;;10.00;87.60;;;;;;5488641;26;20468;-56
2024/04/24 08:18:26;;;;;;;5.00;1.80;;;9.90;89.50;;;;;;5488696;26;20455;-56
2024/04/24 08:20:56;;;;;;;6.23;1.70;;;9.90;89.50;;;;;;5488535;26;20512;-55
2024/04/24 08:23:27;;;;;;;8.50;1.80;;;10.00;90.40;;;;;;5488653;26;20492;-56
2024/04/24 08:25:56;;;;;;;5.70;1.67;;;10.20;90.10;;;;;;5488403;26;20500;-55
2024/04/24 08:28:24;;;;;;;5.30;2.13;;;10.40;90.80;;;;;;5488512;26;20981;-56
2024/04/24 08:30:52;;;;;;;5.10;1.80;;;10.70;90.30;;;;;;5488309;26;20478;-55
2024/04/24 08:33:21;;;;;;;6.03;1.70;;;11.30;90.20;;;;;;5488415;26;20562;-55
2024/04/24 08:35:49;;;;;;;4.73;1.50;;;11.60;83.50;;;;;;5488267;26;20463;-55
2024/04/24 08:38:18;;;;;;;4.53;1.80;;;11.70;82.10;;;;;;5488396;26;20561;-55
2024/04/24 08:40:49;;;;;;;7.10;2.00;;;11.60;81.40;;;;;;5488209;26;20480;-55
2024/04/24 08:43:17;;;;;;;7.63;1.97;;;11.30;81.50;;;;;;5488289;26;20581;-56
2024/04/24 08:45:47;;;;;;;4.27;1.93;;;11.00;82.60;;;;;;5487990;26;20452;-55
2024/04/24 08:48:15;;;;;;;4.33;1.67;;;10.80;83.00;;;;;;5490672;26;20562;-55
2024/04/24 08:50:45;;;;;;;6.40;2.10;;;10.60;83.30;;;;;;5491805;26;20459;-55
2024/04/24 08:53:16;;;;;;;3.00;1.40;;;10.50;83.50;;;;;;5492085;26;20455;-55
2024/04/24 08:55:49;;;;;;;6.57;1.80;;;10.40;84.90;;;;;;5491627;26;20451;-55
2024/04/24 08:58:24;;;;;;;4.57;1.63;;;10.40;85.50;;;;;;5491958;26;20462;-56
2024/04/24 09:00:54;;;;;;;6.97;1.50;;;10.30;83.90;;;;;;5491743;26;21132;-55
2024/04/24 09:03:29;;;;;;;5.03;1.63;;;10.30;83.10;;;;;;5491796;26;20447;-55
2024/04/24 09:06:00;;;;;;;3.87;1.60;;;10.40;86.30;;;;;;5491511;26;20973;-56
2024/04/24 09:08:32;;;;;;;3.10;1.50;;;10.60;84.50;;;;;;5491880;26;20459;-55
2024/04/24 09:11:04;;;;;;;1.67;1.10;;;10.90;79.70;;;;;;5491514;26;20452;-55
2024/04/24 09:13:32;;;;;;;6.17;2.20;;;11.30;80.20;;;;;;5491516;26;20447;-55
2024/04/24 09:16:02;;;;;;;5.40;1.77;;;11.70;79.70;;;;;;5491452;26;20440;-56
2024/04/24 09:18:31;;;;;;;2.90;1.13;;;12.00;75.20;;;;;;5491479;26;20561;-55
2024/04/24 09:21:02;;;;;;;4.47;1.60;;;12.30;72.70;;;;;;5491315;26;20933;-56
2024/04/24 09:23:30;;;;;;;4.73;1.43;;;12.60;71.80;;;;;;5491586;26;20492;-56
2024/04/24 09:25:59;;;;;;;8.23;3.10;;;12.80;71.60;;;;;;5491445;26;20443;-55
2024/04/24 09:28:30;;;;;;;5.97;1.20;;;13.10;69.30;;;;;;5491347;26;20939;-56
2024/04/24 09:31:00;;;;;;;3.30;1.43;;;13.20;66.10;;;;;;5491346;26;21062;-56
2024/04/24 09:33:28;;;;;;;3.03;1.30;;;13.50;66.20;;;;;;5491446;26;20511;-56
2024/04/24 09:35:57;;;;;;;2.87;1.47;;;13.80;64.60;;;;;;5491603;26;20499;-56
2024/04/24 09:38:26;;;;;;;4.47;1.30;;;14.00;61.80;;;;;;5491463;26;20451;-56
2024/04/24 09:40:54;;;;;;;5.63;1.43;;;14.10;59.80;;;;;;5491233;26;20471;-56
2024/04/24 09:43:23;;;;;;;5.47;1.17;;;14.20;59.30;;;;;;5491793;26;20499;-56
2024/04/24 09:45:54;;;;;;;5.33;1.20;;;14.20;58.10;;;;;;5491090;26;20461;-56
2024/04/24 09:48:23;;;;;;;3.00;1.20;;;14.00;57.10;;;;;;5491238;26;20823;-56
2024/04/24 09:50:52;;;;;;;6.03;1.53;;;13.80;58.10;;;;;;5491069;26;20583;-56
2024/04/24 09:53:21;;;;;;;6.47;1.70;;;13.70;59.10;;;;;;5491148;26;20569;-56
2024/04/24 09:56:00;;;;;;;7.23;1.70;;;13.70;58.80;;;;;;5491144;26;20451;-56
2024/04/24 09:58:30;;;;;;;5.00;1.70;;;13.60;59.70;;;;;;5490306;26;20503;-56
2024/04/24 10:01:04;;;;;;;4.73;1.47;;;13.50;59.80;;;;;;5490605;26;20553;-56
2024/04/24 10:03:37;;;;;;;6.53;2.03;;;13.40;60.00;;;;;;5491029;26;20495;-56
2024/04/24 10:06:11;;;;;;;6.50;1.83;;;13.20;61.30;;;;;;5490882;26;20884;-55
2024/04/24 10:08:41;;;;;;;4.87;2.30;;;13.00;61.30;;;;;;5491065;26;21001;-56
2024/04/24 10:11:13;;;;;;;7.73;2.07;;;12.80;64.30;;;;;;5490970;26;20455;-56
2024/04/24 10:13:44;;;;;;;3.80;1.63;;;12.60;64.30;;;;;;5490679;26;20563;-56
2024/04/24 10:16:15;;;;;;;4.10;2.07;;;12.30;67.40;;;;;;5490801;26;20503;-56
2024/04/24 10:18:47;;;;;;;4.07;1.40;;;12.20;68.00;;;;;;5490753;26;20862;-56
2024/04/24 10:21:16;;;;;;;7.27;1.50;;;12.20;67.80;;;;;;5490671;26;21024;-57
2024/04/24 10:23:45;;;;;;;5.10;2.70;;;12.20;67.80;;;;;;5490627;26;20555;-56
2024/04/24 10:26:15;;;;;;;4.93;1.57;;;12.20;66.80;;;;;;5490566;26;20506;-56
2024/04/24 10:28:45;;;;;;;7.57;1.90;;;12.20;68.20;;;;;;5490604;26;20452;-56
2024/04/24 10:31:17;;;;;;;3.50;1.83;;;12.40;67.30;;;;;;5490446;26;20459;-56
2024/04/24 10:33:46;;;;;;;8.93;1.50;;;12.60;67.30;;;;;;5490561;26;20989;-56
2024/04/24 10:36:14;;;;;;;4.50;1.90;;;12.80;67.80;;;;;;5490550;26;20451;-55
2024/04/24 10:38:45;;;;;;;4.37;1.87;;;12.90;68.10;;;;;;5490315;26;20459;-56
2024/04/24 10:41:14;;;;;;;9.40;2.20;;;13.00;64.20;;;;;;5490258;26;20475;-56
2024/04/24 10:43:43;;;;;;;3.40;1.20;;;12.90;62.90;;;;;;5490308;26;21009;-56
2024/04/24 10:46:11;;;;;;;6.07;1.50;;;12.80;63.40;;;;;;5490200;26;21098;-56
2024/04/24 10:48:56;;;;;;;6.57;1.70;;;12.80;62.70;;;;;;5490299;26;20455;-56
2024/04/24 10:51:32;;;;;;;12.90;2.27;;;12.80;65.30;;;;;;5490292;26;20455;-57
2024/04/24 10:54:14;;;;;;;5.77;2.00;;;12.50;66.90;;;;;;5490132;26;20455;-57
2024/04/24 10:56:43;;;;;;;9.20;1.90;;;12.20;69.10;;;;;;5490171;26;20448;-57
2024/04/24 10:59:12;;;;;;;6.80;2.27;;;11.90;73.10;;;;;;5490138;26;20580;-56
2024/04/24 11:01:45;;;;;;;8.10;1.80;;;11.60;74.50;;;;;;5489957;26;21012;-57
2024/04/24 11:04:17;;;;;;;9.90;2.50;;;11.40;76.90;;;;;;5490166;26;20997;-57
2024/04/24 11:06:47;;;;;;;5.63;1.70;;;11.20;80.50;;;;;;5489925;26;20460;-57
2024/04/24 11:09:15;;;;;;;5.47;2.23;;;10.80;81.10;;;;;;5490072;26;20617;-57
2024/04/24 11:11:44;;;;;;;6.40;2.07;;;10.60;84.90;;;;;;5489682;26;20467;-57
2024/04/24 11:14:12;;;;;;;4.00;1.37;;;10.60;86.30;;;;;;5489806;26;20785;-57
2024/04/24 11:16:41;;;;;;;5.73;1.87;;;10.70;88.60;;;;;;5489673;26;20451;-56
2024/04/24 11:19:10;;;;;;;4.00;1.57;;;10.80;89.20;;;;;;5489696;26;20639;-57
2024/04/24 11:21:41;;;;;;;7.10;1.93;;;11.10;89.40;;;;;;5489823;26;20508;-57
2024/04/24 11:24:09;;;;;;;4.10;1.50;;;11.40;90.00;;;;;;5489783;26;20985;-57
2024/04/24 11:26:35;;;;;;;14.33;2.70;;;11.60;89.70;;;;;;5489503;26;20565;-57
2024/04/24 11:29:05;;;;;;;6.20;2.37;;;11.80;86.20;;;;;;5489591;26;20861;-57
2024/04/24 11:31:37;;;;;;;6.33;2.40;;;12.00;87.00;;;;;;5489456;26;20568;-57
2024/04/24 11:34:07;;;;;;;3.03;1.87;;;12.90;86.70;;;;;;5488480;26;21008;-57
2024/04/24 11:36:36;;;;;;;9.83;1.90;;;14.10;81.00;;;;;;5520235;26;21023;-57
2024/04/24 11:39:07;;;;;;;2.67;1.40;;;15.60;73.50;;;;;;5525695;25;20446;-56
2024/04/24 11:41:37;;;;;;;1.80;1.10;;;16.80;66.30;;;;;;5525580;25;21027;-56
2024/04/24 11:44:06;;;;;;;3.90;1.27;;;17.60;63.90;;;;;;5525596;25;20447;-56
2024/04/24 11:46:35;;;;;;;4.33;1.50;;;18.40;59.70;;;;;;5525779;25;20453;-56
2024/04/24 11:49:06;;;;;;;4.63;1.60;;;19.20;56.50;;;;;;5525659;25;20442;-56
2024/04/24 11:51:36;;;;;;;4.13;1.27;;;19.80;55.30;;;;;;5525556;25;20544;-56
2024/04/24 11:54:07;;;;;;;1.40;1.00;;;20.30;50.40;;;;;;5525377;25;20498;-56
2024/04/24 11:56:40;;;;;;;2.50;1.20;;;20.70;51.30;;;;;;5525547;25;20822;-56
2024/04/24 11:59:08;;;;;;;4.57;1.30;;;20.90;48.70;;;;;;5525253;25;20446;-57
2024/04/24 12:01:38;;;;;;;2.60;1.50;;;20.00;49.30;;;;;;5525246;25;20462;-57
2024/04/24 12:04:07;;;;;;;4.07;1.50;;;19.10;49.60;;;;;;5525279;25;20498;-57
2024/04/24 12:06:40;;;;;;;4.67;1.90;;;18.10;52.20;;;;;;5525035;25;20446;-57
2024/04/24 12:09:14;;;;;;;4.57;1.60;;;17.20;53.70;;;;;;5525532;25;20470;-58
2024/04/24 12:11:44;;;;;;;4.70;1.90;;;16.60;55.90;;;;;;5525141;25;20613;-57
2024/04/24 12:14:14;;;;;;;5.93;1.83;;;15.90;56.40;;;;;;5525280;25;20486;-58
2024/04/24 12:16:43;;;;;;;6.27;2.47;;;15.50;58.20;;;;;;5524885;25;20498;-57
2024/04/24 12:19:12;;;;;;;6.67;2.30;;;15.20;60.10;;;;;;5525027;25;20820;-57
2024/04/24 12:21:40;;;;;;;3.80;1.77;;;14.70;61.50;;;;;;5524934;25;21030;-57
2024/04/24 12:24:11;;;;;;;4.07;1.77;;;14.30;64.10;;;;;;5528928;25;20450;-57
2024/04/24 12:26:40;;;;;;;2.57;1.33;;;13.90;65.90;;;;;;5528662;25;20999;-57
2024/04/24 12:29:08;;;;;;;6.10;1.97;;;14.30;68.40;;;;;;5528683;25;20490;-57
2024/04/24 12:31:37;;;;;;;2.00;1.00;;;15.40;63.80;;;;;;5528637;25;20474;-57
2024/04/24 12:34:05;;;;;;;3.43;1.70;;;16.90;60.30;;;;;;5528599;25;20567;-57
2024/04/24 12:36:36;;;;;;;7.20;1.87;;;18.30;55.40;;;;;;5528482;25;20559;-57
2024/04/24 12:39:06;;;;;;;2.93;1.43;;;19.30;52.80;;;;;;5528620;25;20442;-56
2024/04/24 12:41:37;;;;;;;4.07;1.93;;;19.60;50.70;;;;;;5528498;25;20462;-56
2024/04/24 12:44:06;;;;;;;3.43;1.73;;;19.30;49.50;;;;;;5528268;25;20439;-56
2024/04/24 12:46:34;;;;;;;3.70;1.80;;;18.60;51.10;;;;;;5528511;25;20466;-56
2024/04/24 12:49:03;;;;;;;4.67;1.57;;;17.60;52.00;;;;;;5528461;25;20886;-57
2024/04/24 12:51:33;;;;;;;3.13;1.37;;;16.80;55.40;;;;;;5528225;25;20465;-57
2024/04/24 12:54:02;;;;;;;6.80;1.70;;;15.90;58.40;;;;;;5528509;25;20513;-56
2024/04/24 12:56:30;;;;;;;4.60;1.63;;;14.90;61.00;;;;;;5528333;25;20454;-56
2024/04/24 12:59:01;;;;;;;4.23;1.10;;;14.10;65.50;;;;;;5528395;25;20502;-56
2024/04/24 13:01:30;;;;;;;4.37;1.20;;;13.60;70.10;;;;;;5529138;25;21131;-57
2024/04/24 13:03:59;;;;;;;4.20;1.30;;;13.30;71.90;;;;;;5530699;25;20454;-57
2024/04/24 13:06:28;;;;;;;1.63;1.37;;;13.10;73.90;;;;;;5531096;25;20984;-57